createdAt,value
2023-04-27T00:00:37.751Z,92.7961
2023-04-27T00:01:38.293Z,92.8483
2023-04-27T00:02:39.575Z,93.0101
2023-04-27T00:03:40.003Z,93.0843
2023-04-27T00:04:40.303Z,93.2348
2023-04-27T00:05:40.354Z,93.4062
2023-04-27T00:06:40.332Z,93.5235
2023-04-27T00:07:40.972Z,93.6612
2023-04-27T00:08:41.528Z,93.7068
2023-04-27T00:09:41.938Z,93.7641
2023-04-27T00:10:42.611Z,93.9327
2023-04-27T00:11:43.233Z,94.1774
2023-04-27T00:12:43.838Z,94.3958
2023-04-27T00:13:44.376Z,94.6055
2023-04-27T00:14:44.933Z,94.7799
2023-04-27T00:15:45.485Z,94.9082
2023-04-27T00:16:46.074Z,95.0274
2023-04-27T00:17:46.872Z,95.1647
2023-04-27T00:18:47.651Z,95.2757
2023-04-27T00:19:47.629Z,95.3445
2023-04-27T00:20:48.087Z,95.3914
2023-04-27T00:21:48.863Z,95.4156
2023-04-27T00:22:49.389Z,95.4482
2023-04-27T00:23:50.020Z,95.4711
2023-04-27T00:24:50.691Z,95.5075
2023-04-27T00:25:51.413Z,95.5495
2023-04-27T00:26:52.058Z,95.5941
2023-04-27T00:27:52.665Z,95.6482
2023-04-27T00:28:53.083Z,95.6801
2023-04-27T00:29:53.689Z,95.7239
2023-04-27T00:30:54.176Z,95.7695
2023-04-27T00:31:54.956Z,95.8107
2023-04-27T00:32:55.836Z,95.8475
2023-04-27T00:33:56.415Z,95.8701
2023-04-27T00:34:57.063Z,95.9082
2023-04-27T00:35:57.782Z,95.9143
2023-04-27T00:36:58.298Z,95.8942
2023-04-27T00:37:58.893Z,95.8676
2023-04-27T00:38:59.287Z,95.8449
2023-04-27T00:39:59.820Z,95.8169
2023-04-27T00:41:00.467Z,95.7846
2023-04-27T00:42:00.854Z,95.7620
2023-04-27T00:43:01.652Z,95.7312
2023-04-27T00:44:02.251Z,95.6948
2023-04-27T00:45:02.675Z,95.6521
2023-04-27T00:46:03.831Z,95.5783
2023-04-27T00:47:04.358Z,95.5446
2023-04-27T00:48:05.347Z,95.5533
2023-04-27T00:49:05.906Z,95.5556
2023-04-27T00:50:07.178Z,95.5739
2023-04-27T00:51:07.897Z,95.6388
2023-04-27T00:52:08.735Z,95.6913
2023-04-27T00:53:09.231Z,95.7348
2023-04-27T00:54:09.852Z,95.7635
2023-04-27T00:55:10.566Z,95.7915
2023-04-27T00:56:10.986Z,95.7980
2023-04-27T00:57:11.574Z,95.7993
2023-04-27T00:58:12.033Z,95.7822
2023-04-27T00:59:12.965Z,95.7638
2023-04-27T01:00:13.772Z,95.7709
2023-04-27T01:01:14.431Z,95.7838
2023-04-27T01:04:16.368Z,95.7571
2023-04-27T01:05:16.502Z,95.7774
2023-04-27T01:06:17.028Z,95.8216
2023-04-27T01:07:17.649Z,95.8331
2023-04-27T01:08:18.835Z,95.8505
2023-04-27T01:09:19.468Z,95.9001
2023-04-27T01:10:19.545Z,95.9365
2023-04-27T01:11:20.194Z,95.9878
2023-04-27T01:12:20.737Z,96.0722
2023-04-27T01:13:21.386Z,96.1560
2023-04-27T01:14:22.116Z,96.1916
2023-04-27T01:15:22.540Z,96.2262
2023-04-27T01:16:23.191Z,96.2815
2023-04-27T01:17:23.935Z,96.3478
2023-04-27T01:18:24.861Z,96.4081
2023-04-27T01:19:25.789Z,96.4573
2023-04-27T01:20:26.304Z,96.5081
2023-04-27T01:21:27.280Z,96.5483
2023-04-27T01:22:27.895Z,96.5642
2023-04-27T01:23:28.331Z,96.5714
2023-04-27T01:24:29.035Z,96.5848
2023-04-27T01:25:29.527Z,96.5965
2023-04-27T01:26:30.169Z,96.6182
2023-04-27T01:27:30.941Z,96.6101
2023-04-27T01:28:31.361Z,96.5985
2023-04-27T01:29:32.151Z,96.5838
2023-04-27T01:30:33.270Z,96.5573
2023-04-27T01:31:33.416Z,96.5440
2023-04-27T01:32:33.758Z,96.5380
2023-04-27T01:33:34.519Z,96.5290
2023-04-27T01:34:35.069Z,96.5023
2023-04-27T01:35:35.795Z,96.4505
2023-04-27T01:36:36.470Z,96.3986
2023-04-27T01:37:37.397Z,96.3303
2023-04-27T01:38:38.020Z,96.2583
2023-04-27T01:39:38.462Z,96.2202
2023-04-27T01:40:39.266Z,96.1693
2023-04-27T01:41:39.731Z,96.1587
2023-04-27T01:42:40.264Z,96.1981
2023-04-27T01:43:40.931Z,96.2495
2023-04-27T01:44:41.402Z,96.2971
2023-04-27T01:45:42.043Z,96.3653
2023-04-27T01:46:43.129Z,96.4515
2023-04-27T01:47:43.808Z,96.5177
2023-04-27T01:48:44.741Z,96.5721
2023-04-27T01:49:45.953Z,96.6197
2023-04-27T01:50:46.353Z,96.6664
2023-04-27T01:51:46.897Z,96.6989
2023-04-27T01:52:47.427Z,96.7074
2023-04-27T01:53:48.181Z,96.7342
2023-04-27T01:54:48.659Z,96.7746
2023-04-27T01:55:49.189Z,96.7926
2023-04-27T01:56:50.137Z,96.7928
2023-04-27T01:57:50.873Z,96.8073
2023-04-27T01:58:51.267Z,96.8419
2023-04-27T01:59:51.911Z,96.8679
2023-04-27T02:00:52.193Z,96.8986
2023-04-27T02:01:53.073Z,96.9207
2023-04-27T02:02:53.519Z,96.9314
2023-04-27T02:03:53.567Z,96.9624
2023-04-27T02:04:54.083Z,96.9666
2023-04-27T02:05:54.499Z,96.9814
2023-04-27T02:06:55.429Z,97.0045
2023-04-27T02:07:56.270Z,97.0590
2023-04-27T02:08:56.824Z,97.0987
2023-04-27T02:09:57.404Z,97.1545
2023-04-27T02:10:58.363Z,97.2033
2023-04-27T02:11:59.113Z,97.2337
2023-04-27T02:12:59.726Z,97.2785
2023-04-27T02:14:00.552Z,97.3118
2023-04-27T02:15:01.360Z,97.3257
2023-04-27T02:16:02.180Z,97.3576
2023-04-27T02:17:03.299Z,97.3823
2023-04-27T02:18:04.399Z,97.4045
2023-04-27T02:19:05.300Z,97.4211
2023-04-27T02:20:06.122Z,97.4329
2023-04-27T02:21:06.892Z,97.4540
2023-04-27T02:22:07.597Z,97.4909
2023-04-27T02:23:08.087Z,97.5405
2023-04-27T02:24:08.873Z,97.6041
2023-04-27T02:25:10.289Z,97.6610
2023-04-27T02:26:11.156Z,97.7190
2023-04-27T02:28:11.568Z,97.7899
2023-04-27T02:29:12.619Z,97.8199
2023-04-27T02:30:13.182Z,97.8429
2023-04-27T02:31:14.281Z,97.8684
2023-04-27T02:32:15.345Z,97.8801
2023-04-27T02:33:16.278Z,97.9041
2023-04-27T02:34:16.840Z,97.9237
2023-04-27T02:35:17.975Z,97.9384
2023-04-27T02:36:18.723Z,97.9533
2023-04-27T02:37:19.185Z,97.9794
2023-04-27T02:38:19.993Z,98.0114
2023-04-27T02:39:20.548Z,98.0266
2023-04-27T02:40:21.185Z,98.0399
2023-04-27T02:41:21.937Z,98.0569
2023-04-27T02:42:22.415Z,98.0697
2023-04-27T02:43:23.247Z,98.0765
2023-04-27T02:44:23.901Z,98.0892
2023-04-27T02:45:24.577Z,98.0963
2023-04-27T02:46:25.554Z,98.0926
2023-04-27T02:47:26.436Z,98.0941
2023-04-27T02:48:27.260Z,98.0894
2023-04-27T02:49:27.694Z,98.0948
2023-04-27T02:50:27.900Z,98.0942
2023-04-27T02:51:28.732Z,98.0959
2023-04-27T02:52:29.302Z,98.0971
2023-04-27T02:53:30.333Z,98.1016
2023-04-27T02:54:30.929Z,98.1071
2023-04-27T02:55:31.538Z,98.1063
2023-04-27T02:56:32.396Z,98.1142
2023-04-27T02:57:33.133Z,98.1161
2023-04-27T02:58:33.603Z,98.1163
2023-04-27T02:59:34.763Z,98.1218
2023-04-27T03:00:35.573Z,98.1239
2023-04-27T03:01:36.545Z,98.1359
2023-04-27T03:02:36.595Z,98.1425
2023-04-27T03:03:37.594Z,98.1508
2023-04-27T03:04:38.695Z,98.1583
2023-04-27T03:06:38.797Z,98.1976
2023-04-27T03:07:39.451Z,98.1972
2023-04-27T03:08:40.159Z,98.2078
2023-04-27T03:09:40.865Z,98.2064
2023-04-27T03:10:41.513Z,98.2077
2023-04-27T03:11:42.092Z,98.2113
2023-04-27T03:12:42.814Z,98.2142
2023-04-27T03:13:43.510Z,98.2172
2023-04-27T03:14:44.015Z,98.2258
2023-04-27T03:15:44.034Z,98.2329
2023-04-27T03:16:44.696Z,98.2379
2023-04-27T03:17:45.545Z,98.2546
2023-04-27T03:18:46.245Z,98.2526
2023-04-27T03:19:47.440Z,98.2506
2023-04-27T03:20:47.952Z,98.2628
2023-04-27T03:21:48.727Z,98.2594
2023-04-27T03:22:49.283Z,98.2646
2023-04-27T03:23:49.946Z,98.2620
2023-04-27T03:24:50.633Z,98.2711
2023-04-27T03:25:51.183Z,98.2752
2023-04-27T03:26:51.834Z,98.2762
2023-04-27T03:27:52.287Z,98.2725
2023-04-27T03:28:54.724Z,98.2812
2023-04-27T03:29:55.437Z,98.2782
2023-04-27T03:30:55.836Z,98.2885
2023-04-27T03:31:56.896Z,98.2961
2023-04-27T03:32:57.453Z,98.3156
2023-04-27T03:33:57.873Z,98.3147
2023-04-27T03:34:58.536Z,98.3347
2023-04-27T03:35:59.114Z,98.3549
2023-04-27T03:36:59.571Z,98.3702
2023-04-27T03:38:00.215Z,98.3868
2023-04-27T03:39:00.709Z,98.4012
2023-04-27T03:40:01.783Z,98.4147
2023-04-27T03:41:02.470Z,98.4256
2023-04-27T03:42:02.909Z,98.4457
2023-04-27T03:43:03.824Z,98.4653
2023-04-27T03:44:04.462Z,98.4843
2023-04-27T03:45:04.944Z,98.4983
2023-04-27T03:46:06.144Z,98.5163
2023-04-27T03:47:06.901Z,98.5313
2023-04-27T03:48:08.141Z,98.5521
2023-04-27T03:49:08.757Z,98.5600
2023-04-27T03:50:08.873Z,98.5871
2023-04-27T03:51:09.558Z,98.6029
2023-04-27T03:52:10.268Z,98.6237
2023-04-27T03:53:10.988Z,98.6370
2023-04-27T03:54:11.837Z,98.6610
2023-04-27T03:55:12.579Z,98.6696
2023-04-27T03:56:13.167Z,98.6752
2023-04-27T03:57:13.855Z,98.6839
2023-04-27T03:58:14.680Z,98.6867
2023-04-27T03:59:15.487Z,98.6904
2023-04-27T04:00:15.140Z,98.7039
2023-04-27T04:01:16.142Z,98.7095
2023-04-27T04:02:17.130Z,98.7119
2023-04-27T04:03:18.384Z,98.7124
2023-04-27T04:04:18.648Z,98.7190
2023-04-27T04:05:19.313Z,98.7287
2023-04-27T04:12:29.156Z,98.7517
2023-04-27T04:13:30.177Z,98.7573
2023-04-27T04:19:37.782Z,98.7989
2023-04-27T04:20:38.542Z,98.8048
2023-04-27T04:21:39.570Z,98.7997
2023-04-27T04:22:40.090Z,98.7983
2023-04-27T04:31:54.283Z,98.7332
2023-04-27T04:32:55.138Z,98.7459
2023-04-27T04:33:55.845Z,98.7581
2023-04-27T04:34:56.347Z,98.7594
2023-04-27T04:35:56.843Z,98.7682
2023-04-27T04:36:57.881Z,98.7883
2023-04-27T04:38:00.238Z,98.8046
2023-04-27T04:39:02.177Z,98.8196
2023-04-27T04:40:03.446Z,98.8248
2023-04-27T04:41:04.654Z,98.8302
2023-04-27T04:42:05.476Z,98.8334
2023-04-27T04:43:05.736Z,98.8319
2023-04-27T04:44:06.246Z,98.8396
2023-04-27T04:45:08.530Z,98.8456
2023-04-27T04:46:10.767Z,98.8535
2023-04-27T04:47:12.114Z,98.8605
2023-04-27T04:48:13.149Z,98.8700
2023-04-27T04:49:14.236Z,98.8661
2023-04-27T04:50:15.515Z,98.8720
2023-04-27T04:51:14.483Z,98.8758
2023-04-27T04:52:25.982Z,98.8861
2023-04-27T04:53:26.895Z,98.8924
2023-04-27T04:54:28.080Z,98.8926
2023-04-27T04:55:28.512Z,98.8928
2023-04-27T04:56:29.515Z,98.8931
2023-04-27T04:57:31.797Z,98.8782
2023-04-27T04:58:33.135Z,98.8678
2023-04-27T04:59:33.333Z,98.8604
2023-04-27T05:00:33.990Z,98.8650
2023-04-27T05:01:34.927Z,98.8486
2023-04-27T05:02:36.176Z,98.8456
2023-04-27T05:03:37.799Z,98.8356
2023-04-27T05:04:38.622Z,98.8311
2023-04-27T05:06:38.929Z,98.8219
2023-04-27T05:07:39.682Z,98.8199
2023-04-27T05:08:40.019Z,98.8115
2023-04-27T05:09:40.680Z,98.8139
2023-04-27T05:10:41.822Z,98.8095
2023-04-27T05:11:42.678Z,98.8014
2023-04-27T05:12:43.712Z,98.7908
2023-04-27T05:13:44.591Z,98.7398
2023-04-27T05:14:45.046Z,98.6780
2023-04-27T05:15:45.566Z,98.6313
2023-04-27T05:21:54.435Z,98.5746
2023-04-27T05:22:56.120Z,98.5736
2023-04-27T05:23:56.677Z,98.5784
2023-04-27T05:25:09.325Z,98.5769
2023-04-27T05:26:10.334Z,98.5726
2023-04-27T05:27:10.373Z,98.5606
2023-04-27T05:28:11.890Z,98.5544
2023-04-27T05:29:12.255Z,98.5524
2023-04-27T05:30:13.029Z,98.5411
2023-04-27T05:31:14.424Z,98.5418
2023-04-27T05:32:15.791Z,98.5584
2023-04-27T05:33:16.575Z,98.5671
2023-04-27T05:34:17.902Z,98.5818
2023-04-27T05:35:18.244Z,98.5969
2023-04-27T05:36:19.245Z,98.6078
2023-04-27T05:37:20.561Z,98.6175
2023-04-27T05:38:21.317Z,98.6343
2023-04-27T05:39:22.166Z,98.6490
2023-04-27T05:40:22.976Z,98.6684
2023-04-27T05:41:24.182Z,98.6754
2023-04-27T05:44:26.383Z,98.6929
2023-04-27T05:45:28.380Z,98.7034
2023-04-27T05:46:32.867Z,98.7052
2023-04-27T05:48:29.932Z,98.7303
2023-04-27T05:49:30.689Z,98.7314
2023-04-27T05:50:31.187Z,98.7486
2023-04-27T05:56:38.911Z,98.7320
2023-04-27T05:57:39.749Z,98.7372
2023-04-27T05:58:40.099Z,98.7311
2023-04-27T05:59:40.634Z,98.7299
2023-04-27T06:00:41.452Z,98.7337
2023-04-27T06:01:42.306Z,98.7233
2023-04-27T06:02:42.626Z,98.7068
2023-04-27T06:03:42.826Z,98.6919
2023-04-27T06:04:43.229Z,98.6730
2023-04-27T06:05:43.255Z,98.6509
2023-04-27T06:06:44.624Z,98.6336
2023-04-27T06:07:45.390Z,98.6055
2023-04-27T06:08:46.345Z,98.5749
2023-04-27T06:09:47.565Z,98.5431
2023-04-27T06:10:48.114Z,98.5020
2023-04-27T06:11:48.976Z,98.4844
2023-04-27T06:12:49.572Z,98.4745
2023-04-27T06:13:50.224Z,98.4803
2023-04-27T06:14:51.312Z,98.4874
2023-04-27T06:15:52.029Z,98.4871
2023-04-27T06:16:52.832Z,98.5006
2023-04-27T06:17:53.777Z,98.5022
2023-04-27T06:18:54.405Z,98.5031
2023-04-27T06:19:55.118Z,98.4927
2023-04-27T06:20:56.097Z,98.4750
2023-04-27T06:21:57.157Z,98.4538
2023-04-27T06:22:57.745Z,98.4436
2023-04-27T06:23:58.696Z,98.4127
2023-04-27T06:24:59.466Z,98.3711
2023-04-27T06:26:01.138Z,98.3106
2023-04-27T06:27:00.330Z,98.2621
2023-04-27T06:28:01.016Z,98.1466
2023-04-27T06:29:01.848Z,97.9822
2023-04-27T06:30:02.358Z,97.8245
2023-04-27T06:31:03.417Z,97.6670
2023-04-27T06:32:04.794Z,97.4734
2023-04-27T06:33:05.702Z,97.3302
2023-04-27T06:34:06.402Z,97.2475
2023-04-27T06:35:07.147Z,97.1225
2023-04-27T06:36:08.149Z,97.0569
2023-04-27T06:37:09.075Z,97.0758
2023-04-27T06:38:10.002Z,97.0698
2023-04-27T06:39:10.482Z,96.9864
2023-04-27T06:40:11.429Z,96.8212
2023-04-27T06:41:12.057Z,96.6742
2023-04-27T06:42:12.796Z,96.6181
2023-04-27T06:43:13.602Z,96.4944
2023-04-27T06:44:14.837Z,96.2980
2023-04-27T06:45:15.489Z,96.1688
2023-04-27T06:46:16.392Z,95.9798
2023-04-27T06:47:17.076Z,95.8531
2023-04-27T06:48:17.913Z,95.8748
2023-04-27T06:49:18.645Z,95.8491
2023-04-27T06:50:19.083Z,95.8930
2023-04-27T06:51:19.698Z,95.9080
2023-04-27T06:52:20.397Z,95.7744
2023-04-27T06:53:20.741Z,95.8273
2023-04-27T06:54:21.424Z,95.8511
2023-04-27T06:55:21.912Z,95.8245
2023-04-27T06:56:22.155Z,95.8304
2023-04-27T06:57:22.812Z,95.8818
2023-04-27T06:58:23.555Z,95.7777
2023-04-27T06:59:24.893Z,95.5016
2023-04-27T07:00:25.682Z,95.3850
2023-04-27T07:01:26.537Z,95.3967
2023-04-27T07:02:28.191Z,95.3640
2023-04-27T07:03:28.248Z,94.9234
2023-04-27T07:04:29.253Z,95.0096
2023-04-27T07:05:29.119Z,95.2853
2023-04-27T07:06:29.675Z,95.5348
2023-04-27T07:07:30.365Z,95.7243
2023-04-27T07:08:30.875Z,95.8562
2023-04-27T07:09:31.622Z,95.7205
2023-04-27T07:10:32.178Z,95.6647
2023-04-27T07:11:32.960Z,95.6407
2023-04-27T07:12:33.374Z,95.4056
2023-04-27T07:13:34.012Z,95.2061
2023-04-27T07:14:34.660Z,95.2587
2023-04-27T07:15:35.164Z,95.2462
2023-04-27T07:16:36.065Z,95.2689
2023-04-27T07:17:37.151Z,95.2117
2023-04-27T07:18:37.830Z,95.0045
2023-04-27T07:19:38.980Z,94.5629
2023-04-27T07:20:39.761Z,94.6327
2023-04-27T07:21:40.462Z,94.6368
2023-04-27T07:22:41.124Z,94.2074
2023-04-27T07:23:41.619Z,93.5019
2023-04-27T07:24:42.177Z,93.5705
2023-04-27T07:25:42.876Z,93.8583
2023-04-27T07:26:43.409Z,93.7716
2023-04-27T07:27:44.105Z,93.4808
2023-04-27T07:28:44.732Z,93.4415
2023-04-27T07:29:45.197Z,93.1441
2023-04-27T07:30:45.884Z,93.4609
2023-04-27T07:31:46.818Z,93.7612
2023-04-27T07:32:47.729Z,93.1941
2023-04-27T07:33:48.517Z,93.2493
2023-04-27T07:34:53.703Z,93.3209
2023-04-27T07:35:50.310Z,92.6049
2023-04-27T07:36:51.066Z,92.8094
2023-04-27T07:37:51.805Z,92.8672
2023-04-27T07:38:52.285Z,92.6014
2023-04-27T07:39:53.019Z,91.8318
2023-04-27T07:40:53.254Z,90.4708
2023-04-27T07:41:53.884Z,90.6749
2023-04-27T07:42:54.598Z,88.6279
2023-04-27T07:43:55.047Z,89.1409
2023-04-27T07:44:55.809Z,89.6185
2023-04-27T07:45:56.669Z,89.6846
2023-04-27T07:46:57.756Z,89.7215
2023-04-27T07:47:58.994Z,90.1691
2023-04-27T07:48:58.751Z,90.3541
2023-04-27T07:49:59.261Z,90.2394
2023-04-27T07:50:59.922Z,90.1217
2023-04-27T07:52:00.387Z,90.1957
2023-04-27T07:53:01.058Z,90.3827
2023-04-27T07:54:01.887Z,90.5773
2023-04-27T07:55:02.753Z,89.7332
2023-04-27T07:56:03.551Z,88.8651
2023-04-27T07:57:04.281Z,88.8001
2023-04-27T07:58:04.872Z,88.8813
2023-04-27T07:59:05.566Z,88.6205
2023-04-27T08:00:06.714Z,88.2190
2023-04-27T08:01:07.538Z,87.8172
2023-04-27T08:02:19.697Z,87.7724
2023-04-27T08:03:12.509Z,87.4847
2023-04-27T08:04:12.646Z,87.9307
2023-04-27T08:05:12.925Z,88.9844
2023-04-27T08:06:13.201Z,88.3548
2023-04-27T08:07:14.072Z,88.1197
2023-04-27T08:08:14.899Z,87.3629
2023-04-27T08:09:14.758Z,86.6171
2023-04-27T08:10:14.534Z,85.9965
2023-04-27T08:11:15.199Z,86.4191
2023-04-27T08:12:16.105Z,87.5541
2023-04-27T08:13:16.665Z,86.0239
2023-04-27T08:14:17.169Z,85.7898
2023-04-27T08:15:18.247Z,87.2892
2023-04-27T08:16:18.930Z,89.1997
2023-04-27T08:17:20.124Z,89.4725
2023-04-27T08:18:21.176Z,90.2274
2023-04-27T08:19:22.066Z,91.0926
2023-04-27T08:20:22.844Z,90.9439
2023-04-27T08:21:23.528Z,91.4021
2023-04-27T08:22:24.190Z,91.5917
2023-04-27T08:23:24.998Z,91.7862
2023-04-27T08:24:25.657Z,91.4026
2023-04-27T08:25:26.373Z,90.2625
2023-04-27T08:26:28.543Z,87.9490
2023-04-27T08:27:29.255Z,88.2106
2023-04-27T08:28:29.988Z,87.3972
2023-04-27T08:29:30.969Z,87.2698
2023-04-27T08:30:31.718Z,87.2515
2023-04-27T08:31:32.474Z,86.3596
2023-04-27T08:32:33.884Z,86.1656
2023-04-27T08:33:34.736Z,85.1350
2023-04-27T08:34:35.240Z,84.5690
2023-04-27T08:35:35.981Z,85.6657
2023-04-27T08:36:36.548Z,87.5842
2023-04-27T08:37:37.273Z,87.2904
2023-04-27T08:38:37.944Z,85.8119
2023-04-27T08:39:38.941Z,85.3352
2023-04-27T08:40:39.655Z,84.8805
2023-04-27T08:41:40.311Z,84.6321
2023-04-27T08:42:41.035Z,84.9959
2023-04-27T08:43:41.858Z,84.8713
2023-04-27T08:44:42.955Z,85.4483
2023-04-27T08:45:43.499Z,85.8584
2023-04-27T08:46:44.719Z,83.6391
2023-04-27T08:47:46.159Z,84.5189
2023-04-27T08:48:47.004Z,84.8244
2023-04-27T08:49:47.207Z,85.1364
2023-04-27T08:50:47.447Z,85.7856
2023-04-27T08:51:48.181Z,85.5595
2023-04-27T08:52:48.930Z,85.3147
2023-04-27T08:53:49.546Z,85.5050
2023-04-27T08:54:50.255Z,85.7442
2023-04-27T08:55:51.065Z,84.8894
2023-04-27T08:56:51.650Z,84.7255
2023-04-27T08:57:52.356Z,84.2141
2023-04-27T08:58:52.824Z,84.1634
2023-04-27T08:59:53.480Z,85.6764
2023-04-27T09:00:54.443Z,84.8448
2023-04-27T09:01:55.520Z,83.9011
2023-04-27T09:02:56.000Z,83.5515
2023-04-27T09:03:56.280Z,83.7585
2023-04-27T09:04:57.316Z,82.9694
2023-04-27T09:06:06.005Z,83.9554
2023-04-27T09:07:04.486Z,84.0365
2023-04-27T09:08:05.144Z,84.1944
2023-04-27T09:09:05.886Z,81.3520
2023-04-27T09:10:07.164Z,80.4124
2023-04-27T09:11:07.742Z,81.6493
2023-04-27T09:12:08.365Z,83.2252
2023-04-27T09:13:08.893Z,82.5062
2023-04-27T09:14:09.554Z,82.3241
2023-04-27T09:15:10.264Z,82.7751
2023-04-27T09:16:11.029Z,82.7122
2023-04-27T09:17:11.086Z,82.2625
2023-04-27T09:18:11.919Z,81.6370
2023-04-27T09:19:12.890Z,79.8730
2023-04-27T09:20:13.692Z,79.7937
2023-04-27T09:21:14.796Z,77.5901
2023-04-27T09:22:15.159Z,74.8164
2023-04-27T09:23:15.884Z,74.7965
2023-04-27T09:24:16.615Z,74.2608
2023-04-27T09:25:17.089Z,75.8204
2023-04-27T09:26:17.853Z,75.3527
2023-04-27T09:27:18.696Z,75.9550
2023-04-27T09:28:19.541Z,75.8414
2023-04-27T09:29:20.220Z,75.4020
2023-04-27T09:30:21.044Z,73.8776
2023-04-27T09:31:21.835Z,74.2921
2023-04-27T09:32:23.006Z,75.5963
2023-04-27T09:33:23.858Z,76.0928
2023-04-27T09:34:24.838Z,74.7647
2023-04-27T09:35:25.506Z,75.0306
2023-04-27T09:36:26.004Z,75.5253
2023-04-27T09:37:26.689Z,76.7574
2023-04-27T09:38:26.776Z,78.2177
2023-04-27T09:39:27.477Z,77.4589
2023-04-27T09:40:28.160Z,76.1297
2023-04-27T09:41:28.638Z,76.0713
2023-04-27T09:42:29.313Z,76.0333
2023-04-27T09:43:30.121Z,77.5819
2023-04-27T09:44:30.855Z,77.3577
2023-04-27T09:45:31.609Z,74.1029
2023-04-27T09:46:32.611Z,71.4621
2023-04-27T09:47:33.283Z,72.6376
2023-04-27T09:48:34.112Z,76.4136
2023-04-27T09:49:35.241Z,75.3479
2023-04-27T09:50:37.899Z,76.4712
2023-04-27T09:51:36.417Z,75.4322
2023-04-27T09:52:37.154Z,75.8792
2023-04-27T09:53:37.918Z,74.2719
2023-04-27T09:54:38.562Z,72.7023
2023-04-27T09:55:39.087Z,72.6530
2023-04-27T09:56:39.748Z,71.3960
2023-04-27T09:57:40.222Z,69.7863
2023-04-27T09:58:40.919Z,69.6632
2023-04-27T09:59:41.794Z,69.7985
2023-04-27T10:00:42.311Z,70.0731
2023-04-27T10:01:43.528Z,70.6677
2023-04-27T10:02:53.051Z,73.2376
2023-04-27T10:03:48.640Z,71.9540
2023-04-27T10:04:49.067Z,74.2200
2023-04-27T10:05:50.000Z,72.4717
2023-04-27T10:06:50.621Z,71.5865
2023-04-27T10:07:51.341Z,71.1581
2023-04-27T10:08:51.858Z,71.8709
2023-04-27T10:09:52.038Z,67.4122
2023-04-27T10:10:53.148Z,67.9077
2023-04-27T10:11:53.636Z,66.9394
2023-04-27T10:12:54.394Z,67.1363
2023-04-27T10:13:55.117Z,63.2829
2023-04-27T10:14:56.095Z,63.6871
2023-04-27T10:15:56.827Z,63.5988
2023-04-27T10:16:58.413Z,64.5292
2023-04-27T10:17:59.340Z,64.2322
2023-04-27T10:19:00.511Z,66.2606
2023-04-27T10:20:01.392Z,65.2936
2023-04-27T10:21:02.037Z,62.9391
2023-04-27T10:22:02.779Z,62.9117
2023-04-27T10:23:03.410Z,63.3960
2023-04-27T10:24:04.077Z,62.2379
2023-04-27T10:25:04.732Z,62.2823
2023-04-27T10:26:05.285Z,62.7573
2023-04-27T10:27:05.898Z,63.3380
2023-04-27T10:28:06.573Z,62.9315
2023-04-27T10:29:07.132Z,63.7267
2023-04-27T10:30:07.992Z,63.3209
2023-04-27T10:31:08.604Z,63.7711
2023-04-27T10:32:09.395Z,63.2699
2023-04-27T10:33:09.627Z,63.7517
2023-04-27T10:34:10.244Z,62.6685
2023-04-27T10:35:10.928Z,61.0431
2023-04-27T10:36:11.448Z,60.9870
2023-04-27T10:37:12.155Z,59.4370
2023-04-27T10:38:12.749Z,60.9843
2023-04-27T10:39:13.355Z,60.5572
2023-04-27T10:40:28.572Z,60.2720
2023-04-27T10:41:29.267Z,60.1902
2023-04-27T10:42:29.813Z,62.9047
2023-04-27T10:43:30.444Z,61.8326
2023-04-27T10:44:31.263Z,61.2138
2023-04-27T10:45:32.102Z,60.4482
2023-04-27T10:46:31.946Z,58.2206
2023-04-27T10:47:32.498Z,58.1163
2023-04-27T10:48:33.759Z,57.9877
2023-04-27T10:49:34.424Z,57.8170
2023-04-27T10:50:34.935Z,57.5097
2023-04-27T10:51:35.603Z,58.4715
2023-04-27T10:52:36.264Z,58.6722
2023-04-27T10:53:36.830Z,58.1361
2023-04-27T10:54:37.575Z,57.6610
2023-04-27T10:55:38.087Z,57.4637
2023-04-27T10:56:38.762Z,58.0073
2023-04-27T10:57:39.547Z,58.8205
2023-04-27T10:58:48.907Z,58.5900
2023-04-27T10:59:41.243Z,58.7599
2023-04-27T11:00:41.899Z,58.8418
2023-04-27T11:01:42.618Z,60.3271
2023-04-27T11:02:43.820Z,57.9612
2023-04-27T11:03:45.857Z,56.7755
2023-04-27T11:04:45.872Z,57.1287
2023-04-27T11:05:46.713Z,56.8022
2023-04-27T11:06:47.244Z,56.9101
2023-04-27T11:07:47.894Z,56.8029
2023-04-27T11:08:48.511Z,56.7110
2023-04-27T11:09:48.962Z,56.7480
2023-04-27T11:10:49.715Z,57.1467
2023-04-27T11:11:50.697Z,57.9795
2023-04-27T11:12:51.197Z,58.2050
2023-04-27T11:13:51.907Z,57.7685
2023-04-27T11:14:52.479Z,57.1482
2023-04-27T11:15:53.549Z,57.5754
2023-04-27T11:16:54.700Z,57.1285
2023-04-27T11:17:55.479Z,56.7731
2023-04-27T11:18:57.907Z,56.5291
2023-04-27T11:19:57.549Z,56.6415
2023-04-27T11:20:58.501Z,56.7103
2023-04-27T11:21:59.291Z,56.4829
2023-04-27T11:22:59.914Z,56.5421
2023-04-27T11:24:00.487Z,57.3408
2023-04-27T11:25:01.534Z,57.8884
2023-04-27T11:26:01.960Z,58.7900
2023-04-27T11:27:02.518Z,58.8336
2023-04-27T11:28:03.206Z,57.4545
2023-04-27T11:29:03.641Z,57.9001
2023-04-27T11:30:03.658Z,57.7111
2023-04-27T11:31:04.315Z,57.8585
2023-04-27T11:32:05.113Z,57.7996
2023-04-27T11:33:06.071Z,58.0034
2023-04-27T11:34:07.924Z,58.8179
2023-04-27T11:35:07.493Z,60.1827
2023-04-27T11:36:08.128Z,58.1165
2023-04-27T11:38:09.488Z,56.9552
2023-04-27T11:39:10.466Z,57.3477
2023-04-27T11:40:11.190Z,57.5297
2023-04-27T11:41:11.879Z,53.5218
2023-04-27T11:42:12.555Z,52.9270
2023-04-27T11:43:13.127Z,52.3675
2023-04-27T11:44:13.812Z,52.1425
2023-04-27T11:45:14.398Z,52.5323
2023-04-27T11:46:15.043Z,51.9700
2023-04-27T11:47:17.524Z,50.4374
2023-04-27T11:48:16.880Z,48.4034
2023-04-27T11:49:18.075Z,47.6922
2023-04-27T11:50:18.864Z,47.2089
2023-04-27T11:51:19.428Z,47.4578
2023-04-27T11:52:20.060Z,47.4725
2023-04-27T11:53:20.807Z,47.5950
2023-04-27T11:54:21.817Z,46.5455
2023-04-27T11:55:22.460Z,47.3395
2023-04-27T11:56:23.232Z,47.2437
2023-04-27T11:57:23.650Z,47.4041
2023-04-27T11:58:24.327Z,47.5479
2023-04-27T11:59:25.239Z,47.7261
2023-04-27T12:00:26.017Z,46.9373
2023-04-27T12:01:36.923Z,46.5161
2023-04-27T12:02:27.962Z,46.1727
2023-04-27T12:03:27.848Z,44.2935
2023-04-27T12:04:29.877Z,44.5328
2023-04-27T12:05:30.161Z,43.9776
2023-04-27T12:06:34.688Z,44.8964
2023-04-27T12:07:35.671Z,44.9873
2023-04-27T12:08:36.446Z,45.3236
2023-04-27T12:09:37.562Z,45.1380
2023-04-27T12:10:38.341Z,46.2154
2023-04-27T12:11:38.946Z,44.7094
2023-04-27T12:12:39.593Z,44.3258
2023-04-27T12:13:40.325Z,45.0359
2023-04-27T12:14:41.120Z,46.6806
2023-04-27T12:15:42.197Z,47.2402
2023-04-27T12:16:43.155Z,46.2227
2023-04-27T12:17:44.291Z,45.7634
2023-04-27T12:18:45.229Z,46.0448
2023-04-27T12:19:45.777Z,44.4734
2023-04-27T12:20:46.532Z,44.2319
2023-04-27T12:21:46.892Z,43.7497
2023-04-27T12:22:47.380Z,42.0509
2023-04-27T12:23:48.051Z,43.1764
2023-04-27T12:24:49.097Z,43.8328
2023-04-27T12:25:49.883Z,42.8459
2023-04-27T12:26:50.524Z,42.9575
2023-04-27T12:27:51.010Z,44.3008
2023-04-27T12:28:51.714Z,45.2160
2023-04-27T12:29:52.214Z,44.3287
2023-04-27T12:30:52.968Z,43.2780
2023-04-27T12:31:54.009Z,42.4889
2023-04-27T12:32:54.596Z,41.2879
2023-04-27T12:33:55.556Z,41.7493
2023-04-27T12:34:56.347Z,42.9525
2023-04-27T12:35:56.862Z,43.1741
2023-04-27T12:36:57.621Z,42.1384
2023-04-27T12:37:58.416Z,43.4939
2023-04-27T12:38:59.046Z,44.3902
2023-04-27T12:39:59.813Z,45.3426
2023-04-27T12:41:00.906Z,42.8067
2023-04-27T12:42:01.541Z,42.1031
2023-04-27T12:43:03.152Z,40.7931
2023-04-27T12:44:03.984Z,41.2095
2023-04-27T12:45:04.273Z,41.6329
2023-04-27T12:46:05.093Z,41.4828
2023-04-27T12:47:05.749Z,41.8900
2023-04-27T12:48:06.457Z,42.5267
2023-04-27T12:49:07.169Z,42.0631
2023-04-27T12:50:07.789Z,41.9534
2023-04-27T12:51:08.396Z,41.5681
2023-04-27T12:52:08.951Z,42.5934
2023-04-27T12:53:09.542Z,43.0986
2023-04-27T12:54:11.281Z,42.6462